Strawberry Valley, California
Current Conditions -  °F | °C
As of 12:40 AM on Tuesday 21 Oct 2014 (Local Time) from KGOO Reporting Station
Broken Clouds Broken Clouds  
Wind Chill:   Ceiling: 200
Heat Index:   Visibility: 2mi
Dew Point:   Wind: 5mph
Humidity: 100%   Direction: 130°SE
Pressure: 30.07"   Gusts: NA
Location:  39.56°N, 121.11°W
Report Text: KGOO 210740Z AUTO 13004KT 2SM BKN002 08/08 A3007 RMK AO1
Loading
Personal Weather Stations






























Interactive Weather Map
Tropical Storm Tracking
New forecast layout! Learn more

10-Day Weather Forecast

Advertisements
Track Severe Weather on mobile